Time;durP1;ratioP1;P1;durP2;ratioP2;P2;SDS_P1;SDS_P2;PMS_P1;PMS_P2;Temp;Humidity;BMP_temperature;BMP_pressure;BME280_temperature;BME280_humidity;BME280_pressure;Samples;Min_cycle;Max_cycle;Signal;HPM_P1;HPM_P2
2023/12/04 00:00:20;;;;;;;;;;;;;;;-3.07;60.93;95409.81;4958090;28;19926;-67
2023/12/04 00:02:45;;;;;;;;;;;;;;;-3.08;63.48;95402.94;4958093;28;19944;-67
2023/12/04 00:05:11;;;;;;;;;;;;;;;-2.73;56.67;95396.34;4958326;28;20612;-67
2023/12/04 00:07:36;;;;;;;;;;;;;;;-2.79;59.47;95391.53;4950880;28;19961;-68
2023/12/04 00:10:01;;;;;;;;;;;;;;;-2.68;58.67;95393.44;4956672;28;19943;-67
2023/12/04 00:12:26;;;;;;;;;;;;;;;-2.62;61.39;95386.06;4958153;28;19926;-68
2023/12/04 00:14:52;;;;;;;;;;;;;;;-2.60;61.67;95380.75;4957762;28;20556;-66
2023/12/04 00:17:17;;;;;;;;;;;;;;;-2.59;58.34;95374.59;4957992;28;19973;-66
2023/12/04 00:19:42;;;;;;;;;;;;;;;-2.41;62.36;95371.69;4956642;28;19926;-66
2023/12/04 00:22:07;;;;;;;;;;;;;;;-2.70;60.56;95366.66;4989128;28;19973;-67
2023/12/04 00:24:33;;;;;;;;;;;;;;;-2.50;63.25;95371.38;4957354;28;20313;-66
2023/12/04 00:26:58;;;;;;;;;;;;;;;-2.50;61.10;95371.38;4957070;28;20012;-67
2023/12/04 00:29:23;;;;;;;;;;;;;;;-2.36;63.08;95372.22;4958912;28;19926;-68
2023/12/04 00:31:49;;;;;;;;;;;;;;;-2.38;59.19;95369.72;4959541;28;20063;-66
2023/12/04 00:34:14;;;;;;;;;;;;;;;-2.42;60.62;95370.00;4957645;28;19969;-68
2023/12/04 00:36:39;;;;;;;;;;;;;;;-2.39;61.82;95368.06;4957314;28;20455;-68
2023/12/04 00:39:05;;;;;;;;;;;;;;;-2.39;61.00;95370.66;4958583;28;19926;-67
2023/12/04 00:41:30;;;;;;;;;;;;;;;-2.76;54.80;95360.06;4968661;28;19929;-66
2023/12/04 00:43:55;;;;;;;;;;;;;;;-2.49;60.52;95346.13;4957093;28;20359;-68
2023/12/04 00:46:21;;;;;;;;;;;;;;;-2.59;61.35;95351.13;4958304;28;20578;-67
2023/12/04 00:48:46;;;;;;;;;;;;;;;-2.51;58.13;95343.63;4956494;28;20014;-69
2023/12/04 00:51:11;;;;;;;;;;;;;;;-2.51;61.43;95342.81;4958694;28;20451;-70
2023/12/04 00:53:37;;;;;;;;;;;;;;;-3.25;51.84;95338.03;4957189;28;19933;-69
2023/12/04 00:56:02;;;;;;;;;;;;;;;-2.70;59.93;95340.56;4957320;28;20501;-69
2023/12/04 00:58:27;;;;;;;;;;;;;;;-3.05;59.97;95337.59;4956589;28;20204;-69
2023/12/04 01:00:53;;;;;;;;;;;;;;;-2.94;59.55;95341.25;4958575;28;19929;-70
2023/12/04 01:03:18;;;;;;;;;;;;;;;-2.79;64.26;95347.22;4973954;28;19972;-69
2023/12/04 01:05:43;;;;;;;;;;;;;;;-2.76;63.47;95334.84;4956983;28;19935;-69
2023/12/04 01:08:08;;;;;;;;;;;;;;;-2.72;63.22;95338.06;4955644;28;19987;-70
2023/12/04 01:10:34;;;;;;;;;;;;;;;-2.77;60.83;95320.16;4966398;28;20394;-69
2023/12/04 01:12:59;;;;;;;;;;;;;;;-2.88;55.06;95330.44;4957239;28;19936;-70
2023/12/04 01:15:24;;;;;;;;;;;;;;;-2.81;63.17;95318.69;4956483;28;19957;-69
2023/12/04 01:17:49;;;;;;;;;;;;;;;-2.62;63.82;95318.28;4955230;28;19953;-70
2023/12/04 01:20:15;;;;;;;;;;;;;;;-2.76;61.83;95314.00;4955496;28;20090;-69
2023/12/04 01:22:40;;;;;;;;;;;;;;;-2.90;60.62;95306.25;4956825;28;20476;-69
2023/12/04 01:25:06;;;;;;;;;;;;;;;-3.04;62.25;95312.38;4956838;28;20111;-69
2023/12/04 01:27:31;;;;;;;;;;;;;;;-2.93;61.34;95303.84;4957172;28;20010;-68
2023/12/04 01:29:56;;;;;;;;;;;;;;;-3.37;62.92;95314.47;4956961;28;20637;-69
2023/12/04 01:32:21;;;;;;;;;;;;;;;-3.14;59.73;95307.78;4956960;28;19965;-69
2023/12/04 01:34:47;;;;;;;;;;;;;;;-3.10;64.14;95304.94;4956378;28;20001;-70
2023/12/04 01:37:12;;;;;;;;;;;;;;;-3.06;59.88;95299.44;4956531;28;19951;-69
2023/12/04 01:39:37;;;;;;;;;;;;;;;-2.91;62.92;95307.19;4956098;28;19960;-69
2023/12/04 01:42:02;;;;;;;;;;;;;;;-2.91;60.53;95307.19;4956882;28;20676;-68
2023/12/04 01:44:28;;;;;;;;;;;;;;;-3.19;55.84;95315.03;4956585;28;19994;-69
2023/12/04 01:46:53;;;;;;;;;;;;;;;-2.99;64.42;95305.09;4954981;28;19956;-69
2023/12/04 01:49:18;;;;;;;;;;;;;;;-3.16;63.35;95311.44;4951005;28;20020;-69
2023/12/04 01:51:44;;;;;;;;;;;;;;;-3.07;61.47;95304.75;4951355;28;19950;-69
2023/12/04 01:54:09;;;;;;;;;;;;;;;-3.16;62.37;95298.41;4955440;28;20362;-69
2023/12/04 01:56:34;;;;;;;;;;;;;;;-3.24;58.82;95293.69;4956513;28;20662;-68
2023/12/04 01:58:59;;;;;;;;;;;;;;;-3.04;62.53;95302.81;4956030;28;19960;-68
2023/12/04 02:01:25;;;;;;;;;;;;;;;-3.08;62.70;95301.34;4956795;28;19940;-67
2023/12/04 02:03:51;;;;;;;;;;;;;;;-3.15;56.37;95292.25;4954530;28;19966;-68
2023/12/04 02:06:16;;;;;;;;;;;;;;;-3.08;59.62;95290.06;4956525;28;19977;-68
2023/12/04 02:08:41;;;;;;;;;;;;;;;-3.34;58.36;95283.03;4948092;28;20659;-68
2023/12/04 02:11:07;;;;;;;;;;;;;;;-3.19;59.07;95282.97;4955943;28;20000;-68
2023/12/04 02:13:32;;;;;;;;;;;;;;;-3.33;57.72;95283.88;4956820;28;19937;-68
2023/12/04 02:15:59;;;;;;;;;;;;;;;-3.09;62.57;95273.59;4958915;28;19960;-67
2023/12/04 02:18:24;;;;;;;;;;;;;;;-3.34;60.28;95277.81;4952742;28;19936;-68
2023/12/04 02:20:49;;;;;;;;;;;;;;;-3.29;60.65;95275.75;4957727;28;19950;-68
2023/12/04 02:23:15;;;;;;;;;;;;;;;-2.98;61.73;95270.31;4959218;28;19982;-67
2023/12/04 02:25:40;;;;;;;;;;;;;;;-3.15;62.24;95264.41;4960147;28;20041;-68
2023/12/04 02:28:06;;;;;;;;;;;;;;;-3.08;64.17;95269.22;4959666;28;19969;-67
2023/12/04 02:30:31;;;;;;;;;;;;;;;-3.24;60.48;95258.97;4974630;28;19938;-67
2023/12/04 02:32:57;;;;;;;;;;;;;;;-3.11;63.18;95262.47;4958048;28;20006;-68
2023/12/04 02:35:23;;;;;;;;;;;;;;;-3.14;63.70;95263.50;4958040;28;20057;-68
2023/12/04 02:37:48;;;;;;;;;;;;;;;-3.17;61.02;95258.50;4958309;28;19939;-68
2023/12/04 02:40:14;;;;;;;;;;;;;;;-3.16;63.86;95256.72;4959443;28;20007;-68
2023/12/04 02:42:39;;;;;;;;;;;;;;;-3.20;59.79;95253.47;4958891;28;19947;-68
2023/12/04 02:45:04;;;;;;;;;;;;;;;-3.24;60.13;95249.41;4959527;28;20453;-68
2023/12/04 02:47:30;;;;;;;;;;;;;;;-2.95;63.47;95248.41;4951749;28;19971;-67
2023/12/04 02:49:55;;;;;;;;;;;;;;;-2.98;63.98;95244.25;4956858;28;19940;-68
2023/12/04 02:52:20;;;;;;;;;;;;;;;-3.14;59.11;95236.63;4958920;28;20583;-68
2023/12/04 02:54:45;;;;;;;;;;;;;;;-3.22;62.75;95228.47;4958833;28;19981;-68
2023/12/04 02:57:11;;;;;;;;;;;;;;;-3.09;65.29;95229.31;4959304;28;19940;-68
2023/12/04 02:59:36;;;;;;;;;;;;;;;-2.97;63.07;95213.81;4959034;28;19959;-68
2023/12/04 03:02:01;;;;;;;;;;;;;;;-3.16;61.36;95220.28;4959184;28;20531;-68
2023/12/04 03:04:27;;;;;;;;;;;;;;;-3.03;58.10;95213.28;4959094;28;20015;-68
2023/12/04 03:06:53;;;;;;;;;;;;;;;-2.91;63.95;95201.22;4957810;28;19969;-68
2023/12/04 03:09:18;;;;;;;;;;;;;;;-2.99;60.06;95203.47;4950645;28;19926;-70
2023/12/04 03:11:43;;;;;;;;;;;;;;;-2.95;60.33;95194.53;4958908;28;19954;-69
2023/12/04 03:14:09;;;;;;;;;;;;;;;-3.04;62.71;95201.22;4959053;28;19991;-69
2023/12/04 03:16:34;;;;;;;;;;;;;;;-3.10;62.16;95187.75;4958694;28;20458;-69
2023/12/04 03:19:00;;;;;;;;;;;;;;;-3.22;60.53;95190.25;4957507;28;20443;-69
2023/12/04 03:21:25;;;;;;;;;;;;;;;-2.99;62.80;95192.25;4959036;28;20160;-69
2023/12/04 03:23:50;;;;;;;;;;;;;;;-3.04;62.25;95180.38;4958998;28;19967;-69
2023/12/04 03:26:15;;;;;;;;;;;;;;;-3.11;59.78;95183.47;4959203;28;20545;-69
2023/12/04 03:28:41;;;;;;;;;;;;;;;-3.25;55.81;95181.81;4958376;28;20014;-69
2023/12/04 03:31:06;;;;;;;;;;;;;;;-2.97;62.20;95177.34;4958248;28;19979;-69
2023/12/04 03:33:31;;;;;;;;;;;;;;;-3.49;58.98;95177.31;4959328;28;19945;-69
2023/12/04 03:35:58;;;;;;;;;;;;;;;-3.49;59.79;95172.09;4958726;28;20651;-69
2023/12/04 03:38:23;;;;;;;;;;;;;;;-3.63;61.22;95168.66;4958409;28;20358;-68
2023/12/04 03:40:49;;;;;;;;;;;;;;;-3.42;61.98;95165.53;4958884;28;19950;-69
2023/12/04 03:43:14;;;;;;;;;;;;;;;-3.46;60.49;95159.69;4958255;28;20029;-69
2023/12/04 03:45:39;;;;;;;;;;;;;;;-3.56;62.33;95151.66;4959050;28;20447;-69
2023/12/04 03:48:04;;;;;;;;;;;;;;;-3.57;61.10;95160.41;4954285;28;20205;-69
2023/12/04 03:50:30;;;;;;;;;;;;;;;-3.69;59.29;95149.06;4951949;28;20020;-68
2023/12/04 03:52:55;;;;;;;;;;;;;;;-3.69;59.63;95148.22;4958450;28;19934;-69
2023/12/04 03:55:20;;;;;;;;;;;;;;;-3.69;60.64;95145.63;4957677;28;19968;-69
2023/12/04 03:57:45;;;;;;;;;;;;;;;-3.76;60.24;95146.94;4958541;28;20079;-69
2023/12/04 04:00:11;;;;;;;;;;;;;;;-3.61;59.13;95150.28;4957743;28;19961;-69
2023/12/04 04:02:37;;;;;;;;;;;;;;;-3.52;61.32;95139.28;4956080;28;19937;-69
2023/12/04 04:05:02;;;;;;;;;;;;;;;-3.57;62.58;95146.59;4957752;28;20405;-69
2023/12/04 04:07:28;;;;;;;;;;;;;;;-3.63;60.15;95136.56;4951800;28;19970;-68
2023/12/04 04:09:53;;;;;;;;;;;;;;;-3.41;61.46;95131.59;4953979;28;19999;-69
2023/12/04 04:12:18;;;;;;;;;;;;;;;-3.41;63.38;95143.78;4957698;28;19964;-69
2023/12/04 04:14:44;;;;;;;;;;;;;;;-3.44;62.34;95128.34;4957276;28;19954;-69
2023/12/04 04:17:09;;;;;;;;;;;;;;;-3.60;59.54;95137.19;4958412;28;20562;-70
2023/12/04 04:19:34;;;;;;;;;;;;;;;-3.46;59.44;95132.84;4952114;28;20454;-69
2023/12/04 04:21:59;;;;;;;;;;;;;;;-3.31;63.30;95133.56;4957508;28;20303;-68
2023/12/04 04:24:25;;;;;;;;;;;;;;;-3.19;62.59;95135.34;4957368;28;20060;-68
2023/12/04 04:26:50;;;;;;;;;;;;;;;-3.18;62.95;95133.59;4957714;28;20226;-68
2023/12/04 04:29:15;;;;;;;;;;;;;;;-3.02;63.71;95142.00;4957435;28;20089;-68
2023/12/04 04:31:40;;;;;;;;;;;;;;;-3.09;63.08;95137.34;4957155;28;19958;-68
2023/12/04 04:34:06;;;;;;;;;;;;;;;-2.94;62.61;95132.84;4958004;28;19973;-68
2023/12/04 04:36:31;;;;;;;;;;;;;;;-2.92;62.44;95130.97;4957391;28;19959;-67
2023/12/04 04:38:56;;;;;;;;;;;;;;;-2.97;62.12;95128.69;4957496;28;20020;-68
2023/12/04 04:41:21;;;;;;;;;;;;;;;-2.88;63.04;95122.81;4956597;28;19933;-68
2023/12/04 04:43:47;;;;;;;;;;;;;;;-2.99;62.23;95116.69;4957450;28;19926;-68
2023/12/04 04:46:12;;;;;;;;;;;;;;;-3.00;63.11;95118.47;4953449;28;20619;-68
2023/12/04 04:48:37;;;;;;;;;;;;;;;-2.88;63.54;95124.63;4953255;28;19967;-68
2023/12/04 04:51:03;;;;;;;;;;;;;;;-2.90;64.05;95118.66;4956746;28;19965;-68
2023/12/04 04:53:28;;;;;;;;;;;;;;;-2.93;64.18;95113.66;4956954;28;20660;-68
2023/12/04 04:55:54;;;;;;;;;;;;;;;-2.94;62.70;95117.22;4956695;28;19950;-68
2023/12/04 04:58:19;;;;;;;;;;;;;;;-3.01;62.22;95115.03;4957448;28;19971;-68
2023/12/04 05:00:45;;;;;;;;;;;;;;;-3.10;63.56;95109.59;4956986;28;19958;-68
2023/12/04 05:03:10;;;;;;;;;;;;;;;-3.13;61.59;95105.44;4957511;28;20438;-67
2023/12/04 05:05:35;;;;;;;;;;;;;;;-3.24;61.25;95103.59;4957278;28;19961;-68
2023/12/04 05:08:01;;;;;;;;;;;;;;;-3.28;62.12;95104.72;4947022;28;19967;-68
2023/12/04 05:10:26;;;;;;;;;;;;;;;-3.14;64.83;95103.78;4956850;28;20288;-67
2023/12/04 05:12:51;;;;;;;;;;;;;;;-3.08;62.52;95100.78;4954758;28;20062;-68
2023/12/04 05:15:16;;;;;;;;;;;;;;;-3.20;61.19;95109.41;4956533;28;19987;-68
2023/12/04 05:17:42;;;;;;;;;;;;;;;-3.43;61.32;95106.63;4957157;28;19926;-68
2023/12/04 05:20:07;;;;;;;;;;;;;;;-3.30;61.41;95104.84;4952046;28;20019;-68
2023/12/04 05:22:32;;;;;;;;;;;;;;;-3.22;62.05;95100.88;4956473;28;19951;-68
2023/12/04 05:24:58;;;;;;;;;;;;;;;-3.32;60.30;95098.06;4956325;28;19937;-67
2023/12/04 05:27:23;;;;;;;;;;;;;;;-3.30;63.53;95099.63;4956747;28;20093;-68
2023/12/04 05:29:48;;;;;;;;;;;;;;;-3.47;62.84;95094.75;4956869;28;20586;-68
2023/12/04 05:32:13;;;;;;;;;;;;;;;-3.40;63.43;95099.41;4956278;28;19988;-68
2023/12/04 05:34:39;;;;;;;;;;;;;;;-3.54;61.28;95099.50;4956262;28;19946;-68
2023/12/04 05:37:04;;;;;;;;;;;;;;;-3.68;57.47;95090.03;4956750;28;20044;-67
2023/12/04 05:39:29;;;;;;;;;;;;;;;-3.56;63.21;95093.59;4956454;28;19926;-68
2023/12/04 05:41:55;;;;;;;;;;;;;;;-3.74;61.00;95098.25;4957188;28;19965;-68
2023/12/04 05:44:20;;;;;;;;;;;;;;;-3.62;62.92;95086.19;4956245;28;20680;-67
2023/12/04 05:46:45;;;;;;;;;;;;;;;-3.78;61.82;95072.44;4948236;28;20783;-68
2023/12/04 05:49:10;;;;;;;;;;;;;;;-3.64;64.93;95073.28;4953320;28;19975;-68
2023/12/04 05:51:36;;;;;;;;;;;;;;;-3.74;62.74;95065.25;4957687;28;20482;-68
2023/12/04 05:54:01;;;;;;;;;;;;;;;-3.94;60.58;95066.59;4960435;28;19958;-68
2023/12/04 05:56:26;;;;;;;;;;;;;;;-3.65;64.82;95066.41;4959043;28;19965;-67
2023/12/04 05:58:51;;;;;;;;;;;;;;;-3.97;61.73;95061.59;4960326;28;19956;-67
2023/12/04 06:01:17;;;;;;;;;;;;;;;-3.83;62.34;95064.13;4960162;28;19937;-67
2023/12/04 06:03:42;;;;;;;;;;;;;;;-3.87;64.20;95057.41;4959685;28;20048;-67
2023/12/04 06:06:07;;;;;;;;;;;;;;;-3.71;62.86;95057.25;4961191;28;19941;-68
2023/12/04 06:08:33;;;;;;;;;;;;;;;-3.95;56.80;95065.75;4958654;28;19995;-67
2023/12/04 06:10:58;;;;;;;;;;;;;;;-3.87;57.63;95060.03;4959972;28;20058;-68
2023/12/04 06:13:23;;;;;;;;;;;;;;;-3.90;61.81;95068.06;4960132;28;20550;-68
2023/12/04 06:15:48;;;;;;;;;;;;;;;-3.68;61.48;95069.22;4959904;28;19952;-67
2023/12/04 06:18:13;;;;;;;;;;;;;;;-3.54;63.78;95058.72;4957539;28;19936;-68
2023/12/04 06:20:39;;;;;;;;;;;;;;;-3.76;60.69;95066.28;4957897;28;20003;-68
2023/12/04 06:23:04;;;;;;;;;;;;;;;-3.90;55.77;95062.84;4959745;28;19991;-68
2023/12/04 06:25:29;;;;;;;;;;;;;;;-3.58;61.30;95062.47;4959808;28;20329;-68
2023/12/04 06:27:55;;;;;;;;;;;;;;;-3.56;57.08;95057.16;4959947;28;19926;-67
2023/12/04 06:30:20;;;;;;;;;;;;;;;-3.60;57.75;95063.50;4960204;28;19940;-68
2023/12/04 06:32:46;;;;;;;;;;;;;;;-3.42;57.05;95054.44;4958956;28;19965;-68
2023/12/04 06:35:11;;;;;;;;;;;;;;;-3.43;63.84;95042.34;4958504;28;19960;-68
2023/12/04 06:37:38;;;;;;;;;;;;;;;-3.57;56.72;95050.28;4959620;28;19939;-68
2023/12/04 06:40:03;;;;;;;;;;;;;;;-3.25;60.43;95049.84;4957921;28;20397;-69
2023/12/04 06:42:28;;;;;;;;;;;;;;;-3.29;62.97;95041.41;4959668;28;20324;-69
2023/12/04 06:44:54;;;;;;;;;;;;;;;-3.37;59.56;95040.28;4959112;28;20219;-69
2023/12/04 06:47:20;;;;;;;;;;;;;;;-3.52;60.11;95050.81;4959079;28;20396;-68
2023/12/04 06:49:46;;;;;;;;;;;;;;;-3.53;54.95;95036.94;4965301;28;20003;-69
2023/12/04 06:52:11;;;;;;;;;;;;;;;-3.34;63.67;95032.25;4956111;28;20051;-69
2023/12/04 06:54:36;;;;;;;;;;;;;;;-3.37;63.28;95022.06;4960692;28;20439;-69
2023/12/04 06:57:03;;;;;;;;;;;;;;;-3.30;60.36;95037.13;4962158;28;20487;-69
2023/12/04 06:59:28;;;;;;;;;;;;;;;-3.39;60.57;95019.56;4958953;28;19972;-70
2023/12/04 07:01:53;;;;;;;;;;;;;;;-3.35;61.09;95010.59;4957338;28;20321;-69
2023/12/04 07:04:20;;;;;;;;;;;;;;;-3.27;61.59;95010.06;4958060;28;20056;-69
2023/12/04 07:06:45;;;;;;;;;;;;;;;-3.44;54.66;95011.22;4957269;28;19930;-69
2023/12/04 07:09:11;;;;;;;;;;;;;;;-3.31;59.63;95006.00;4981613;28;19930;-69
2023/12/04 07:11:36;;;;;;;;;;;;;;;-3.45;56.13;94993.94;4958603;28;20029;-70
2023/12/04 07:14:01;;;;;;;;;;;;;;;-3.35;58.40;94994.13;4959527;28;19999;-69
2023/12/04 07:16:26;;;;;;;;;;;;;;;-3.30;57.00;94997.25;4958096;28;19997;-68
2023/12/04 07:18:52;;;;;;;;;;;;;;;-3.45;57.33;94989.56;4956294;28;20932;-69
2023/12/04 07:21:17;;;;;;;;;;;;;;;-3.55;55.41;94985.94;4958998;28;19933;-69
2023/12/04 07:23:43;;;;;;;;;;;;;;;-3.38;59.81;94979.56;4952923;28;19963;-68
2023/12/04 07:26:08;;;;;;;;;;;;;;;-3.46;61.12;94981.88;4956417;28;20545;-68
2023/12/04 07:28:33;;;;;;;;;;;;;;;-3.34;62.98;94970.59;4954284;28;19960;-67
2023/12/04 07:30:59;;;;;;;;;;;;;;;-3.31;61.23;94980.81;4954235;28;20072;-68
2023/12/04 07:33:24;;;;;;;;;;;;;;;-3.51;55.81;94974.38;4954974;28;20038;-68
2023/12/04 07:35:51;;;;;;;;;;;;;;;-3.44;62.38;94985.19;4955393;28;19969;-67
2023/12/04 07:38:16;;;;;;;;;;;;;;;-3.31;58.49;94970.38;4956138;28;19987;-68
2023/12/04 07:40:41;;;;;;;;;;;;;;;-3.31;59.79;94972.16;4953390;28;19926;-68
2023/12/04 07:43:06;;;;;;;;;;;;;;;-3.43;57.82;94968.66;4955286;28;19956;-67
2023/12/04 07:45:32;;;;;;;;;;;;;;;-3.72;54.55;94961.06;4956280;28;19953;-68
2023/12/04 07:47:57;;;;;;;;;;;;;;;-3.38;62.06;94960.50;4954923;28;20648;-68
2023/12/04 07:50:24;;;;;;;;;;;;;;;-3.55;58.64;94967.72;4953636;28;19926;-65
2023/12/04 07:52:49;;;;;;;;;;;;;;;-3.52;54.69;94968.31;4955032;28;19956;-67
2023/12/04 07:55:14;;;;;;;;;;;;;;;-3.36;61.03;94954.25;4955550;28;19962;-66
2023/12/04 07:57:40;;;;;;;;;;;;;;;-3.61;56.04;94966.38;4956082;28;19976;-65
2023/12/04 08:00:05;;;;;;;;;;;;;;;-3.74;56.80;94962.97;4955380;28;19930;-65
2023/12/04 08:02:30;;;;;;;;;;;;;;;-3.63;57.40;94959.59;4955794;28;19947;-66
2023/12/04 08:04:56;;;;;;;;;;;;;;;-3.55;59.21;94959.91;4954999;28;20009;-65
2023/12/04 08:07:21;;;;;;;;;;;;;;;-3.40;56.88;94960.59;4954773;28;20060;-66
2023/12/04 08:09:46;;;;;;;;;;;;;;;-3.42;57.30;94958.13;4955290;28;19952;-66
2023/12/04 08:12:12;;;;;;;;;;;;;;;-3.36;56.40;94961.22;4954099;28;19965;-66
2023/12/04 08:14:37;;;;;;;;;;;;;;;-3.49;61.73;94959.50;4953435;28;19938;-67
2023/12/04 08:17:02;;;;;;;;;;;;;;;-3.35;59.62;94955.09;4951839;28;19933;-66
2023/12/04 08:19:28;;;;;;;;;;;;;;;-3.19;61.20;94958.25;4954164;28;19954;-63
2023/12/04 08:21:53;;;;;;;;;;;;;;;-3.27;57.70;94961.41;4955238;28;19937;-66
2023/12/04 08:24:18;;;;;;;;;;;;;;;-3.28;57.65;94959.75;4953904;28;20489;-66
2023/12/04 08:26:47;;;;;;;;;;;;;;;-3.06;58.11;94968.66;4954590;28;20532;-65
2023/12/04 08:29:12;;;;;;;;;;;;;;;-3.10;54.01;94959.38;4954326;28;19978;-67
2023/12/04 08:31:37;;;;;;;;;;;;;;;-3.20;57.31;94971.38;4954876;28;19989;-65
2023/12/04 08:34:02;;;;;;;;;;;;;;;-3.28;53.12;94962.38;4954077;28;19987;-64
2023/12/04 08:36:28;;;;;;;;;;;;;;;-3.20;55.63;94956.59;4953823;28;19997;-65
2023/12/04 08:38:53;;;;;;;;;;;;;;;-3.28;57.07;94959.75;4954312;28;19970;-66
2023/12/04 08:41:18;;;;;;;;;;;;;;;-3.36;52.87;94949.03;4953376;28;19929;-67
2023/12/04 08:43:43;;;;;;;;;;;;;;;-3.20;55.01;94948.78;4953753;28;19961;-66
2023/12/04 08:46:12;;;;;;;;;;;;;;;-3.26;56.21;94946.59;4953756;28;19960;-66
2023/12/04 08:48:37;;;;;;;;;;;;;;;-3.18;54.56;94933.06;4951465;28;19976;-66
2023/12/04 08:51:02;;;;;;;;;;;;;;;-3.38;51.75;94926.66;4954100;28;19957;-65
2023/12/04 08:53:27;;;;;;;;;;;;;;;-3.35;52.26;94919.47;4954419;28;19976;-65
2023/12/04 08:55:53;;;;;;;;;;;;;;;-3.15;54.63;94922.44;4953655;28;19952;-66
2023/12/04 08:58:18;;;;;;;;;;;;;;;-3.39;58.33;94918.03;4954312;28;19975;-65
2023/12/04 09:00:44;;;;;;;;;;;;;;;-3.21;63.15;94917.66;4953617;28;20355;-66
2023/12/04 09:03:10;;;;;;;;;;;;;;;-3.20;56.73;94911.50;4954068;28;20074;-66
2023/12/04 09:05:35;;;;;;;;;;;;;;;-3.10;56.51;94920.31;4956297;28;19971;-66
2023/12/04 09:08:01;;;;;;;;;;;;;;;-2.73;60.60;94926.41;4954692;28;19926;-66
2023/12/04 09:10:26;;;;;;;;;;;;;;;-2.66;60.91;94925.00;4954312;28;19937;-66
2023/12/04 09:12:51;;;;;;;;;;;;;;;-2.47;61.18;94934.94;4952410;28;20049;-67
2023/12/04 09:15:16;;;;;;;;;;;;;;;-2.48;61.19;94937.66;4952979;28;19938;-66
2023/12/04 09:17:42;;;;;;;;;;;;;;;-2.62;50.83;94926.44;4953412;28;19930;-67
2023/12/04 09:20:07;;;;;;;;;;;;;;;-2.29;57.14;94929.28;4952410;28;19926;-66
2023/12/04 09:22:34;;;;;;;;;;;;;;;-2.42;52.95;94924.13;4953316;28;20254;-66
2023/12/04 09:25:00;;;;;;;;;;;;;;;-2.08;58.15;94926.81;4953149;28;20176;-66
2023/12/04 09:27:25;;;;;;;;;;;;;;;-2.15;56.24;94923.03;4951881;28;20119;-66
2023/12/04 09:29:50;;;;;;;;;;;;;;;-1.89;57.54;94921.06;4952278;28;19960;-66
2023/12/04 09:32:15;;;;;;;;;;;;;;;-1.88;57.36;94916.66;4955393;28;20814;-66
2023/12/04 09:34:41;;;;;;;;;;;;;;;-1.83;60.25;94911.94;4953481;28;19937;-67
2023/12/04 09:37:07;;;;;;;;;;;;;;;-2.06;56.74;94904.09;4952561;28;19933;-67
2023/12/04 09:39:32;;;;;;;;;;;;;;;-1.94;59.01;94914.53;4953499;28;19930;-67
2023/12/04 09:41:58;;;;;;;;;;;;;;;-1.99;54.90;94897.44;4953864;28;19963;-67
2023/12/04 09:44:24;;;;;;;;;;;;;;;-2.05;56.07;94897.06;4967788;28;19930;-66
2023/12/04 09:46:49;;;;;;;;;;;;;;;-2.22;56.76;94900.94;4952959;28;19926;-66
2023/12/04 09:49:14;;;;;;;;;;;;;;;-2.34;53.69;94910.53;4968161;28;19977;-66
2023/12/04 09:51:39;;;;;;;;;;;;;;;-1.82;57.12;94900.53;4967889;28;19957;-67
2023/12/04 09:54:05;;;;;;;;;;;;;;;-1.91;55.35;94893.41;4953213;28;19930;-67
2023/12/04 09:56:31;;;;;;;;;;;;;;;-1.85;56.88;94891.16;4953113;28;20444;-67
2023/12/04 09:58:58;;;;;;;;;;;;;;;-1.99;55.97;94887.00;4953249;28;19926;-67
2023/12/04 10:01:23;;;;;;;;;;;;;;;-2.02;56.42;94887.25;4950080;28;20323;-67
2023/12/04 10:03:48;;;;;;;;;;;;;;;-1.69;54.39;94897.81;4954229;28;19934;-67
2023/12/04 10:06:17;;;;;;;;;;;;;;;-1.39;59.68;94883.28;4953880;28;20542;-67
2023/12/04 10:08:44;;;;;;;;;;;;;;;-1.40;55.14;94883.41;4951693;28;19926;-66
2023/12/04 10:11:09;;;;;;;;;;;;;;;-1.24;58.20;94885.63;4951864;28;19933;-66
2023/12/04 10:13:35;;;;;;;;;;;;;;;-1.17;56.37;94878.13;4953984;28;19925;-64
2023/12/04 10:16:00;;;;;;;;;;;;;;;-1.15;57.16;94881.47;4953237;28;19930;-66
2023/12/04 10:18:30;;;;;;;;;;;;;;;-1.01;59.14;94878.56;4949902;28;19927;-65
2023/12/04 10:20:55;;;;;;;;;;;;;;;-0.96;58.21;94866.00;4952099;28;19930;-66
2023/12/04 10:23:21;;;;;;;;;;;;;;;-0.63;58.30;94872.97;4953110;28;19937;-65
2023/12/04 10:25:46;;;;;;;;;;;;;;;-0.50;58.07;94865.78;4953483;28;19926;-66
2023/12/04 10:28:12;;;;;;;;;;;;;;;-0.37;57.91;94865.56;4968497;28;19984;-65
2023/12/04 10:30:37;;;;;;;;;;;;;;;-0.23;58.02;94858.38;4953470;28;20478;-66
2023/12/04 10:33:05;;;;;;;;;;;;;;;-0.06;54.82;94855.13;4953818;28;21075;-64
2023/12/04 10:35:32;;;;;;;;;;;;;;;0.10;54.24;94842.56;4951930;28;20477;-67
2023/12/04 10:37:57;;;;;;;;;;;;;;;-0.09;57.21;94838.88;4953592;28;19922;-66
2023/12/04 10:40:25;;;;;;;;;;;;;;;-0.09;54.16;94831.88;4956183;28;20009;-66
2023/12/04 10:42:51;;;;;;;;;;;;;;;0.04;56.57;94831.63;4957154;28;19926;-65
2023/12/04 10:45:16;;;;;;;;;;;;;;;0.05;56.05;94833.31;4955636;28;19925;-66
2023/12/04 10:47:41;;;;;;;;;;;;;;;-0.12;50.87;94820.81;4955002;28;19937;-66
2023/12/04 10:50:09;;;;;;;;;;;;;;;0.01;52.09;94825.84;4970338;28;19922;-65
2023/12/04 10:52:35;;;;;;;;;;;;;;;0.05;54.82;94817.59;4955972;28;19930;-66
2023/12/04 10:55:01;;;;;;;;;;;;;;;0.17;54.76;94817.50;4956458;28;19937;-66
2023/12/04 10:57:28;;;;;;;;;;;;;;;0.15;52.52;94812.41;4956829;28;20040;-66
2023/12/04 11:00:02;;;;;;;;;;;;;;;0.01;49.19;94800.50;4970660;28;20013;-66
2023/12/04 11:02:27;;;;;;;;;;;;;;;0.41;54.82;94800.63;4955741;28;20597;-65
2023/12/04 11:04:54;;;;;;;;;;;;;;;0.38;52.07;94791.22;4955686;28;19941;-65
2023/12/04 11:07:20;;;;;;;;;;;;;;;0.65;51.49;94792.34;4957456;28;19964;-66
2023/12/04 11:09:46;;;;;;;;;;;;;;;0.71;54.86;94773.47;4956766;28;19929;-65
2023/12/04 11:12:12;;;;;;;;;;;;;;;0.65;52.36;94773.22;4968754;28;19994;-65
2023/12/04 11:14:41;;;;;;;;;;;;;;;0.79;52.28;94772.78;4956487;28;19957;-66
2023/12/04 11:17:07;;;;;;;;;;;;;;;0.83;54.32;94774.19;4969504;28;19926;-65
2023/12/04 11:19:35;;;;;;;;;;;;;;;0.85;55.53;94767.00;4968366;28;19925;-65
2023/12/04 11:22:00;;;;;;;;;;;;;;;1.01;49.27;94754.28;4956697;28;20666;-66
2023/12/04 11:24:25;;;;;;;;;;;;;;;1.38;52.10;94753.56;4970533;28;19934;-67
2023/12/04 11:26:51;;;;;;;;;;;;;;;1.69;54.57;94749.91;4956055;28;19937;-66
2023/12/04 11:29:16;;;;;;;;;;;;;;;1.62;48.82;94741.78;4956188;28;19969;-68
2023/12/04 11:31:42;;;;;;;;;;;;;;;1.70;51.65;94736.63;4969347;28;19973;-67
2023/12/04 11:34:07;;;;;;;;;;;;;;;1.27;52.49;94738.81;4956471;28;19929;-67
2023/12/04 11:36:33;;;;;;;;;;;;;;;1.14;47.74;94738.28;4953856;28;19978;-67
2023/12/04 11:38:58;;;;;;;;;;;;;;;1.07;48.86;94727.53;4954919;28;19977;-67
2023/12/04 11:41:24;;;;;;;;;;;;;;;0.75;54.15;94734.72;4955787;28;19918;-67
2023/12/04 11:43:49;;;;;;;;;;;;;;;0.64;49.20;94719.13;4957231;28;20036;-67
2023/12/04 11:46:25;;;;;;;;;;;;;;;0.73;50.87;94718.31;4953893;28;19919;-68
2023/12/04 11:48:50;;;;;;;;;;;;;;;0.77;50.95;94719.69;4953553;28;20044;-67
2023/12/04 11:51:34;;;;;;;;;;;;;;;0.68;55.78;94717.91;4952550;28;20370;-67
2023/12/04 11:53:59;;;;;;;;;;;;;;;0.46;55.01;94706.75;4957911;28;19938;-67
2023/12/04 11:56:24;;;;;;;;;;;;;;;0.39;52.80;94703.84;4957000;28;20104;-67
2023/12/04 11:58:50;;;;;;;;;;;;;;;0.16;55.80;94698.00;4955647;28;19930;-67
2023/12/04 12:01:17;;;;;;;;;;;;;;;0.16;54.27;94695.41;4955391;28;20442;-67
2023/12/04 12:03:42;;;;;;;;;;;;;;;0.14;53.25;94692.09;4954669;28;19938;-66
2023/12/04 12:06:07;;;;;;;;;;;;;;;0.23;56.57;94679.97;4955177;28;20783;-67
2023/12/04 12:08:32;;;;;;;;;;;;;;;0.33;48.94;94684.28;4954376;28;19960;-68
2023/12/04 12:10:58;;;;;;;;;;;;;;;-0.05;53.44;94672.78;4955336;28;19941;-68
2023/12/04 12:13:25;;;;;;;;;;;;;;;-0.14;58.10;94677.03;4954802;28;19926;-67
2023/12/04 12:15:51;;;;;;;;;;;;;;;-0.21;49.03;94666.28;4955512;28;19937;-67
2023/12/04 12:18:16;;;;;;;;;;;;;;;-0.31;53.04;94668.03;4954900;28;19926;-67
2023/12/04 12:20:41;;;;;;;;;;;;;;;-0.24;55.46;94670.97;4954879;28;19960;-65
2023/12/04 12:23:07;;;;;;;;;;;;;;;-0.61;51.86;94657.47;4955287;28;20827;-66
2023/12/04 12:25:32;;;;;;;;;;;;;;;-0.40;56.56;94656.59;4969196;28;19926;-66
2023/12/04 12:27:57;;;;;;;;;;;;;;;-0.31;55.45;94647.94;4954714;28;19984;-67
2023/12/04 12:30:23;;;;;;;;;;;;;;;-0.23;56.72;94649.06;4968644;28;19922;-67
2023/12/04 12:32:49;;;;;;;;;;;;;;;-0.65;50.57;94635.16;4954564;28;20298;-67
2023/12/04 12:35:15;;;;;;;;;;;;;;;-0.27;55.89;94629.38;4954316;28;19953;-67
2023/12/04 12:37:40;;;;;;;;;;;;;;;-0.60;49.61;94624.31;4955596;28;20020;-67